createdAt,value
2022-12-19T00:01:05.743Z,18.73
2022-12-19T00:03:32.252Z,15.93
2022-12-19T00:06:04.793Z,17.10
2022-12-19T00:08:32.676Z,29.38
2022-12-19T00:11:00.824Z,44.80
2022-12-19T00:13:27.814Z,44.33
2022-12-19T00:16:00.206Z,33.70
2022-12-19T00:18:26.598Z,27.17
2022-12-19T00:20:57.058Z,29.90
2022-12-19T00:23:23.537Z,27.70
2022-12-19T00:25:49.886Z,47.72
2022-12-19T00:28:16.900Z,31.88
2022-12-19T00:30:46.032Z,23.15
2022-12-19T00:33:12.442Z,33.78
2022-12-19T00:35:38.932Z,44.95
2022-12-19T00:38:05.392Z,26.13
2022-12-19T00:40:31.732Z,40.85
2022-12-19T00:42:58.118Z,33.40
2022-12-19T00:45:26.670Z,41.83
2022-12-19T00:47:55.443Z,41.70
2022-12-19T00:50:21.784Z,33.65
2022-12-19T00:52:48.131Z,28.08
2022-12-19T00:55:19.019Z,49.00
2022-12-19T00:57:46.490Z,38.92
2022-12-19T01:00:13.256Z,44.08
2022-12-19T01:02:39.675Z,35.30
2022-12-19T01:05:06.385Z,34.83
2022-12-19T01:07:32.752Z,29.77
2022-12-19T01:09:59.076Z,48.10
2022-12-19T01:12:44.090Z,54.75
2022-12-19T01:15:10.508Z,36.50
2022-12-19T01:17:44.340Z,34.63
2022-12-19T01:20:11.813Z,38.75
2022-12-19T01:22:38.204Z,41.67
2022-12-19T01:25:05.291Z,28.25
2022-12-19T01:27:32.037Z,28.65
2022-12-19T01:29:58.339Z,29.90
2022-12-19T01:32:24.740Z,38.58
2022-12-19T01:34:51.108Z,42.63
2022-12-19T01:37:17.667Z,52.85
2022-12-19T01:39:44.222Z,46.13
2022-12-19T01:42:17.691Z,41.92
2022-12-19T01:45:01.977Z,38.63
2022-12-19T01:47:28.892Z,37.33
2022-12-19T01:49:55.235Z,47.20
2022-12-19T01:52:23.683Z,46.15
2022-12-19T01:54:50.494Z,47.88
2022-12-19T01:57:18.086Z,54.38
2022-12-19T01:59:48.341Z,34.53
2022-12-19T02:02:21.482Z,45.03
2022-12-19T02:04:47.948Z,43.50
2022-12-19T02:07:16.598Z,27.42
2022-12-19T02:09:44.493Z,27.85
2022-12-19T02:12:10.866Z,40.28
2022-12-19T02:14:37.230Z,50.03
2022-12-19T02:17:19.131Z,57.28
2022-12-19T02:19:48.522Z,51.58
2022-12-19T02:22:19.059Z,45.28
2022-12-19T02:24:45.545Z,34.95
2022-12-19T02:27:17.886Z,42.67
2022-12-19T02:29:47.441Z,59.95
2022-12-19T02:32:25.554Z,42.30
2022-12-19T02:34:58.367Z,36.53
2022-12-19T02:37:32.639Z,50.03
2022-12-19T02:40:02.592Z,57.88
2022-12-19T02:42:31.977Z,43.50
2022-12-19T02:44:59.845Z,45.97
2022-12-19T02:47:26.816Z,37.00
2022-12-19T02:49:53.098Z,25.15
2022-12-19T02:52:19.537Z,23.50
2022-12-19T02:54:47.929Z,17.80
2022-12-19T02:57:23.079Z,21.30
2022-12-19T02:59:50.080Z,26.42
2022-12-19T03:02:30.979Z,21.98
2022-12-19T03:05:07.109Z,20.20
2022-12-19T03:07:37.076Z,36.80
2022-12-19T03:10:15.646Z,34.35
2022-12-19T03:12:53.593Z,29.40
2022-12-19T03:15:21.014Z,34.33
2022-12-19T03:17:47.849Z,29.50
2022-12-19T03:20:33.851Z,27.90
2022-12-19T03:23:00.145Z,26.02
2022-12-19T03:25:28.354Z,27.15
2022-12-19T03:27:55.313Z,27.20
2022-12-19T03:30:21.743Z,29.90
2022-12-19T03:32:48.459Z,37.10
2022-12-19T03:35:20.493Z,43.65
2022-12-19T03:40:15.301Z,41.30
2022-12-19T03:43:01.214Z,34.92
2022-12-19T03:45:40.450Z,39.28
2022-12-19T03:48:16.858Z,34.30
2022-12-19T03:50:48.013Z,42.17
2022-12-19T03:53:35.040Z,31.40
2022-12-19T03:56:10.350Z,32.30
2022-12-19T03:58:38.373Z,32.92
2022-12-19T04:01:05.598Z,40.90
2022-12-19T04:03:32.162Z,35.97
2022-12-19T04:05:59.661Z,36.53
2022-12-19T04:08:26.569Z,30.60
2022-12-19T04:10:59.526Z,28.90
2022-12-19T04:13:33.734Z,36.03
2022-12-19T04:16:19.020Z,33.72
2022-12-19T04:18:47.984Z,40.08
2022-12-19T04:21:25.125Z,42.28
2022-12-19T04:23:55.362Z,43.17
2022-12-19T04:26:22.825Z,31.13
2022-12-19T04:28:50.836Z,27.83
2022-12-19T04:31:18.073Z,32.42
2022-12-19T04:33:44.564Z,23.23
2022-12-19T04:36:11.070Z,28.15
2022-12-19T04:38:37.600Z,34.03
2022-12-19T04:41:04.059Z,38.83
2022-12-19T04:43:30.366Z,39.50
2022-12-19T04:45:57.684Z,36.35
2022-12-19T04:48:24.471Z,40.95
2022-12-19T04:50:50.761Z,37.90
2022-12-19T04:53:17.231Z,34.25
2022-12-19T04:55:44.254Z,29.08
2022-12-19T04:58:11.264Z,35.38
2022-12-19T05:00:37.586Z,33.00
2022-12-19T05:03:04.065Z,32.90
2022-12-19T05:05:30.505Z,40.33
2022-12-19T05:07:58.096Z,40.42
2022-12-19T05:10:24.403Z,42.35
2022-12-19T05:12:50.736Z,30.38
2022-12-19T05:15:17.232Z,34.58
2022-12-19T05:17:43.572Z,31.35
2022-12-19T05:20:10.671Z,25.02
2022-12-19T05:22:37.034Z,35.80
2022-12-19T05:25:03.442Z,39.92
2022-12-19T05:27:29.856Z,37.65
2022-12-19T05:29:56.265Z,38.80
2022-12-19T05:32:22.633Z,42.00
2022-12-19T05:34:48.938Z,37.90
2022-12-19T05:37:15.382Z,27.08
2022-12-19T05:39:41.771Z,25.13
2022-12-19T05:42:12.112Z,43.92
2022-12-19T05:44:39.044Z,41.47
2022-12-19T05:47:05.449Z,34.83
2022-12-19T05:49:31.805Z,31.73
2022-12-19T05:51:58.190Z,32.47
2022-12-19T05:54:25.838Z,38.67
2022-12-19T05:56:52.156Z,30.50
2022-12-19T05:59:18.517Z,35.00
2022-12-19T06:01:44.896Z,42.97
2022-12-19T06:04:11.528Z,46.03
2022-12-19T06:06:38.113Z,47.95
2022-12-19T06:09:04.533Z,50.38
2022-12-19T06:11:30.967Z,44.38
2022-12-19T06:13:57.503Z,42.78
2022-12-19T06:16:24.368Z,45.30
2022-12-19T06:18:50.901Z,46.67
2022-12-19T06:21:19.160Z,41.80
2022-12-19T06:23:45.908Z,41.50
2022-12-19T06:26:18.534Z,36.63
2022-12-19T06:28:45.713Z,35.08
2022-12-19T06:31:12.363Z,43.75
2022-12-19T06:33:38.782Z,43.40
2022-12-19T06:36:06.358Z,43.00
2022-12-19T06:38:33.305Z,37.30
2022-12-19T06:41:18.644Z,39.30
2022-12-19T06:43:48.009Z,43.58
2022-12-19T06:46:18.413Z,41.38
2022-12-19T06:48:44.843Z,40.47
2022-12-19T06:51:11.223Z,35.03
2022-12-19T06:53:37.642Z,27.77
2022-12-19T06:56:04.249Z,30.70
2022-12-19T06:58:30.599Z,25.65
2022-12-19T07:00:56.943Z,31.85
2022-12-19T07:03:26.309Z,39.90
2022-12-19T07:05:53.004Z,33.90
2022-12-19T07:08:19.386Z,27.65
2022-12-19T07:10:45.854Z,27.17
2022-12-19T07:13:12.171Z,26.73
2022-12-19T07:15:39.114Z,28.25
2022-12-19T07:18:07.012Z,32.08
2022-12-19T07:20:34.489Z,30.17
2022-12-19T07:23:01.938Z,33.60
2022-12-19T07:25:28.369Z,32.60
2022-12-19T07:27:54.834Z,38.10
2022-12-19T07:30:22.243Z,33.72
2022-12-19T07:32:48.561Z,40.95
2022-12-19T07:35:14.963Z,36.13
2022-12-19T07:37:41.264Z,34.28
2022-12-19T07:40:07.913Z,33.08
2022-12-19T07:42:35.404Z,29.15
2022-12-19T07:45:01.961Z,31.45
2022-12-19T07:47:28.344Z,36.13
2022-12-19T07:49:54.675Z,36.78
2022-12-19T07:52:21.095Z,42.67
2022-12-19T07:54:47.512Z,31.52
2022-12-19T07:57:13.849Z,27.00
2022-12-19T07:59:40.149Z,34.17
2022-12-19T08:02:06.865Z,29.92
2022-12-19T08:04:34.452Z,28.48
2022-12-19T08:07:02.216Z,25.58
2022-12-19T08:09:28.691Z,26.55
2022-12-19T08:11:55.258Z,23.48
2022-12-19T08:14:21.624Z,24.52
2022-12-19T08:17:18.738Z,35.08
2022-12-19T08:19:34.442Z,29.23
2022-12-19T08:22:00.785Z,33.90
2022-12-19T08:24:27.077Z,38.20
2022-12-19T08:26:53.379Z,25.70
2022-12-19T08:29:19.789Z,20.38
2022-12-19T08:31:46.130Z,21.45
2022-12-19T08:34:12.433Z,24.60
2022-12-19T08:36:39.612Z,17.90
2022-12-19T08:39:06.141Z,13.55
2022-12-19T08:41:32.446Z,12.07
2022-12-19T08:43:58.858Z,7.25
2022-12-19T08:46:26.067Z,7.32
2022-12-19T08:48:52.501Z,6.30
2022-12-19T08:51:19.181Z,4.65
2022-12-19T08:53:46.339Z,3.10
2022-12-19T08:56:12.711Z,6.43
2022-12-19T08:58:39.397Z,5.68
2022-12-19T09:01:08.968Z,8.93
2022-12-19T09:03:39.723Z,6.15
2022-12-19T09:06:22.029Z,6.95
2022-12-19T09:08:48.412Z,8.88
2022-12-19T09:11:16.159Z,13.30
2022-12-19T09:13:43.156Z,15.25
2022-12-19T09:16:20.229Z,16.08
2022-12-19T09:18:48.717Z,16.60
2022-12-19T09:21:15.902Z,16.23
2022-12-19T09:23:42.549Z,10.93
2022-12-19T09:26:11.797Z,24.02
2022-12-19T09:28:38.875Z,14.45
2022-12-19T09:31:06.679Z,11.13
2022-12-19T09:33:39.459Z,9.07
2022-12-19T09:36:12.799Z,8.20
2022-12-19T09:38:39.239Z,5.60
2022-12-19T09:41:24.323Z,8.52
2022-12-19T09:43:50.717Z,8.60
2022-12-19T09:46:18.975Z,14.48
2022-12-19T09:48:49.424Z,13.27
2022-12-19T09:51:39.273Z,8.52
2022-12-19T09:54:16.016Z,7.22
2022-12-19T09:56:46.025Z,7.50
2022-12-19T09:59:17.187Z,4.07
2022-12-19T10:01:50.783Z,2.00
2022-12-19T10:04:19.006Z,1.70
2022-12-19T10:07:11.330Z,7.88
2022-12-19T10:11:24.845Z,6.15
2022-12-19T10:12:46.000Z,4.00
2022-12-19T10:15:35.759Z,3.78
2022-12-19T10:18:02.208Z,8.70
2022-12-19T10:20:30.212Z,10.65
2022-12-19T10:23:11.964Z,14.65
2022-12-19T10:25:41.139Z,13.90
2022-12-19T10:28:22.344Z,11.77
2022-12-19T10:31:01.469Z,8.98
2022-12-19T10:36:01.727Z,9.82
2022-12-19T10:38:36.011Z,6.80
2022-12-19T10:41:13.690Z,3.10
2022-12-19T10:43:58.896Z,3.58
2022-12-19T10:46:31.538Z,4.10
2022-12-19T10:48:58.363Z,4.20
2022-12-19T10:51:29.403Z,21.73
2022-12-19T10:53:57.156Z,18.00
2022-12-19T10:56:25.497Z,14.15
2022-12-19T10:58:57.399Z,11.98
2022-12-19T11:01:33.339Z,8.73
2022-12-19T11:04:21.031Z,7.85
2022-12-19T11:07:09.485Z,10.02
2022-12-19T11:09:37.915Z,9.65
2022-12-19T11:17:40.112Z,8.52
2022-12-19T11:19:30.268Z,8.20
2022-12-19T11:25:10.636Z,10.30
2022-12-19T11:29:45.592Z,8.00
2022-12-19T11:29:46.777Z,6.45
2022-12-19T11:30:36.959Z,12.75
2022-12-19T11:31:51.351Z,11.65
2022-12-19T11:32:40.127Z,11.52
2022-12-19T11:35:19.382Z,13.82
2022-12-19T11:37:52.797Z,16.17
2022-12-19T11:40:33.923Z,16.80
2022-12-19T11:46:00.648Z,27.27
2022-12-19T11:48:48.033Z,21.05
2022-12-19T11:51:27.975Z,27.58
2022-12-19T11:54:03.298Z,30.10
2022-12-19T11:56:29.757Z,29.38
2022-12-19T11:59:22.264Z,37.20
2022-12-19T12:02:07.231Z,33.55
2022-12-19T12:04:51.873Z,34.63
2022-12-19T12:07:52.070Z,25.23
2022-12-19T12:15:55.311Z,23.42
2022-12-19T12:22:07.745Z,29.85
2022-12-19T12:28:38.038Z,24.25
2022-12-19T12:31:07.463Z,19.15
2022-12-19T12:31:11.975Z,23.90
2022-12-19T12:31:46.189Z,8.27
2022-12-19T12:31:50.783Z,14.50
2022-12-19T12:32:05.398Z,6.53
2022-12-19T12:35:55.110Z,4.85
2022-12-19T12:39:41.568Z,8.45
2022-12-19T12:42:20.091Z,12.98
2022-12-19T12:44:47.591Z,8.32
2022-12-19T12:47:22.866Z,6.00
2022-12-19T12:49:49.251Z,4.50
2022-12-19T12:52:18.192Z,3.55
2022-12-19T12:54:46.431Z,6.57
2022-12-19T12:57:20.910Z,6.00
2022-12-19T12:59:48.698Z,7.75
2022-12-19T13:02:21.701Z,11.45
2022-12-19T13:04:55.306Z,11.95
2022-12-19T13:07:28.019Z,14.25
2022-12-19T13:10:27.034Z,10.88
2022-12-19T13:13:00.228Z,13.02
2022-12-19T13:15:29.949Z,15.77
2022-12-19T13:17:56.305Z,14.75
2022-12-19T13:20:27.639Z,13.52
2022-12-19T13:22:57.618Z,16.98
2022-12-19T13:25:46.469Z,10.68
2022-12-19T13:28:36.223Z,7.07
2022-12-19T13:31:20.836Z,9.50
2022-12-19T13:33:56.141Z,15.45
2022-12-19T13:39:48.727Z,16.05
2022-12-19T13:39:54.910Z,17.00
2022-12-19T13:42:36.762Z,15.60
2022-12-19T13:45:08.887Z,10.55
2022-12-19T13:47:37.824Z,13.48
2022-12-19T13:50:06.691Z,13.38
2022-12-19T13:52:33.138Z,10.85
2022-12-19T13:54:59.743Z,11.15
2022-12-19T13:57:30.905Z,11.40
2022-12-19T14:00:03.437Z,10.50
2022-12-19T14:02:32.231Z,8.55
2022-12-19T14:04:59.084Z,6.30
2022-12-19T14:07:36.920Z,4.65
2022-12-19T14:11:34.278Z,5.25
2022-12-19T14:13:48.804Z,7.50
2022-12-19T14:16:00.150Z,5.22
2022-12-19T14:18:43.615Z,3.25
2022-12-19T14:22:11.645Z,3.72
2022-12-19T14:24:17.381Z,3.20
2022-12-19T14:28:22.350Z,2.85
2022-12-19T14:30:19.915Z,2.47
2022-12-19T14:33:45.484Z,2.63
2022-12-19T14:36:07.516Z,1.98
2022-12-19T14:39:22.085Z,2.85
2022-12-19T14:41:08.281Z,1.90
2022-12-19T14:53:17.580Z,9.05
2022-12-19T14:54:16.119Z,7.15
2022-12-19T14:54:25.518Z,6.05
2022-12-19T14:55:58.911Z,7.95
2022-12-19T14:58:54.360Z,7.82
2022-12-19T15:01:10.011Z,5.90
2022-12-19T15:03:42.823Z,3.17
2022-12-19T15:06:19.777Z,3.60
2022-12-19T15:11:07.285Z,1.92
2022-12-19T15:14:46.631Z,5.07
2022-12-19T15:15:18.279Z,2.58
2022-12-19T15:17:46.081Z,4.65
2022-12-19T15:20:12.674Z,3.20
2022-12-19T15:22:39.034Z,5.65
2022-12-19T15:25:05.546Z,6.28
2022-12-19T15:27:31.864Z,2.88
2022-12-19T15:29:58.391Z,7.78
2022-12-19T15:32:24.807Z,11.57
2022-12-19T15:34:51.920Z,9.20
2022-12-19T15:37:18.494Z,9.02
2022-12-19T15:39:44.957Z,16.50
2022-12-19T15:42:25.003Z,19.95
2022-12-19T15:44:52.147Z,23.48
2022-12-19T15:47:23.366Z,26.83
2022-12-19T15:49:49.738Z,19.95
2022-12-19T15:52:17.805Z,20.20
2022-12-19T15:54:49.716Z,22.52
2022-12-19T15:57:40.118Z,16.52
2022-12-19T16:00:08.139Z,12.55
2022-12-19T16:03:20.487Z,8.35
2022-12-19T16:05:22.213Z,6.13
2022-12-19T16:07:48.729Z,5.68
2022-12-19T16:10:15.710Z,7.47
2022-12-19T16:12:44.152Z,5.05
2022-12-19T16:15:22.930Z,4.28
2022-12-19T16:17:49.387Z,3.90
2022-12-19T16:20:17.472Z,3.17
2022-12-19T16:22:43.995Z,5.00
2022-12-19T16:25:11.884Z,6.10
2022-12-19T16:27:38.382Z,10.20
2022-12-19T16:30:19.181Z,15.73
2022-12-19T16:32:45.823Z,9.05
2022-12-19T16:35:40.145Z,7.90
2022-12-19T16:38:08.572Z,6.68
2022-12-19T16:40:35.070Z,8.25
2022-12-19T16:43:05.655Z,7.85
2022-12-19T16:45:33.144Z,5.70
2022-12-19T16:47:59.760Z,5.80
2022-12-19T16:50:27.854Z,5.68
2022-12-19T16:52:54.632Z,3.83
2022-12-19T16:55:21.477Z,5.07
2022-12-19T16:57:49.251Z,8.18
2022-12-19T17:00:17.866Z,7.90
2022-12-19T17:02:46.911Z,6.43
2022-12-19T17:05:18.233Z,6.50
2022-12-19T17:07:44.611Z,4.13
2022-12-19T17:10:11.071Z,5.57
2022-12-19T17:12:37.758Z,7.53
2022-12-19T17:15:07.754Z,10.48
2022-12-19T17:17:34.450Z,17.38
2022-12-19T17:20:00.796Z,20.13
2022-12-19T17:22:27.157Z,18.08
2022-12-19T17:24:53.599Z,17.30
2022-12-19T17:27:22.741Z,21.65
2022-12-19T17:29:49.167Z,14.57
2022-12-19T17:32:23.256Z,10.90
2022-12-19T17:34:50.571Z,7.70
2022-12-19T17:37:17.401Z,5.43
2022-12-19T17:39:43.722Z,16.08
2022-12-19T17:42:15.277Z,11.90
2022-12-19T17:44:42.035Z,25.48
2022-12-19T17:47:12.147Z,18.92
2022-12-19T17:49:38.638Z,30.80
2022-12-19T17:52:05.746Z,30.20
2022-12-19T17:54:33.304Z,25.92
2022-12-19T17:56:59.658Z,21.45
2022-12-19T17:59:26.033Z,25.80
2022-12-19T18:01:52.582Z,24.45
2022-12-19T18:04:19.887Z,30.75
2022-12-19T18:06:46.598Z,29.63
2022-12-19T18:09:19.707Z,23.63
2022-12-19T18:11:46.652Z,21.27
2022-12-19T18:14:13.057Z,21.95
2022-12-19T18:16:39.715Z,17.98
2022-12-19T18:19:06.166Z,18.05
2022-12-19T18:21:32.640Z,20.75
2022-12-19T18:23:58.996Z,26.80
2022-12-19T18:26:25.323Z,27.05
2022-12-19T18:28:51.701Z,21.98
2022-12-19T18:31:22.013Z,19.85
2022-12-19T18:33:48.711Z,13.93
2022-12-19T18:36:23.102Z,10.02
2022-12-19T18:38:50.119Z,16.23
2022-12-19T18:41:17.319Z,22.13
2022-12-19T18:43:44.369Z,28.60
2022-12-19T18:46:15.109Z,33.38
2022-12-19T18:48:42.373Z,33.85
2022-12-19T18:51:17.833Z,31.50
2022-12-19T18:53:44.633Z,26.80
2022-12-19T18:56:11.353Z,21.30
2022-12-19T18:58:37.920Z,19.98
2022-12-19T19:01:05.219Z,33.88
2022-12-19T19:03:33.014Z,32.97
2022-12-19T19:06:00.113Z,36.30
2022-12-19T19:08:29.043Z,38.42
2022-12-19T19:10:55.921Z,33.72
2022-12-19T19:13:23.187Z,24.92
2022-12-19T19:15:54.394Z,26.83
2022-12-19T19:18:22.042Z,29.35
2022-12-19T19:20:49.300Z,29.85
2022-12-19T19:23:16.077Z,31.98
2022-12-19T19:25:42.501Z,23.05
2022-12-19T19:28:09.096Z,27.38
2022-12-19T19:30:37.690Z,22.35
2022-12-19T19:33:10.390Z,32.78
2022-12-19T19:35:36.950Z,32.13
2022-12-19T19:38:07.048Z,29.58
2022-12-19T19:40:33.869Z,32.70
2022-12-19T19:43:00.247Z,31.08
2022-12-19T19:45:27.837Z,22.52
2022-12-19T19:47:54.637Z,23.63
2022-12-19T19:50:21.148Z,24.45
2022-12-19T19:52:47.554Z,26.70
2022-12-19T19:55:16.684Z,22.98
2022-12-19T19:57:43.058Z,25.15
2022-12-19T20:00:09.805Z,18.05
2022-12-19T20:02:36.265Z,14.32
2022-12-19T20:05:02.725Z,21.15
2022-12-19T20:07:29.113Z,28.90
2022-12-19T20:09:55.453Z,52.30
2022-12-19T20:12:21.817Z,66.18
2022-12-19T20:14:48.245Z,58.00
2022-12-19T20:17:14.631Z,36.00
2022-12-19T20:19:40.993Z,27.90
2022-12-19T20:22:07.367Z,22.10
2022-12-19T20:24:33.971Z,14.70
2022-12-19T20:27:00.373Z,11.25
2022-12-19T20:29:27.038Z,13.50
2022-12-19T20:31:53.497Z,14.63
2022-12-19T20:34:20.236Z,17.20
2022-12-19T20:36:46.610Z,16.60
2022-12-19T20:39:13.114Z,17.27
2022-12-19T20:41:39.529Z,22.17
2022-12-19T20:44:05.901Z,16.08
2022-12-19T20:46:32.530Z,11.18
2022-12-19T20:48:58.930Z,8.82
2022-12-19T20:51:25.291Z,8.07
2022-12-19T20:53:53.641Z,6.45
2022-12-19T20:56:23.058Z,4.95
2022-12-19T20:58:50.274Z,4.50
2022-12-19T21:01:17.818Z,4.65
2022-12-19T21:03:44.419Z,7.82
2022-12-19T21:06:12.352Z,6.65
2022-12-19T21:08:39.002Z,5.25
2022-12-19T21:11:06.003Z,5.80
2022-12-19T21:13:32.781Z,6.82
2022-12-19T21:16:01.909Z,7.20
2022-12-19T21:18:29.055Z,13.27
2022-12-19T21:20:55.767Z,10.07
2022-12-19T21:23:22.662Z,11.93
2022-12-19T21:25:49.345Z,15.85
2022-12-19T21:28:15.700Z,12.57
2022-12-19T21:30:42.369Z,14.88
2022-12-19T21:33:09.306Z,12.75
2022-12-19T21:35:35.948Z,8.73
2022-12-19T21:38:02.607Z,7.70
2022-12-19T21:40:29.024Z,9.23
2022-12-19T21:42:55.340Z,8.32
2022-12-19T21:45:21.764Z,7.95
2022-12-19T21:47:48.118Z,4.38
2022-12-19T21:50:14.720Z,3.90
2022-12-19T21:52:41.176Z,2.72
2022-12-19T21:55:08.345Z,4.63
2022-12-19T21:57:38.932Z,2.67
2022-12-19T22:00:05.799Z,6.03
2022-12-19T22:02:32.211Z,8.82
2022-12-19T22:04:58.636Z,8.00
2022-12-19T22:07:25.055Z,10.20
2022-12-19T22:09:51.362Z,10.70
2022-12-19T22:12:17.680Z,9.93
2022-12-19T22:14:44.967Z,9.10
2022-12-19T22:17:11.361Z,9.93
2022-12-19T22:19:37.682Z,7.57
2022-12-19T22:22:04.087Z,8.88
2022-12-19T22:24:30.563Z,9.90
2022-12-19T22:26:56.890Z,11.95
2022-12-19T22:29:23.366Z,9.82
2022-12-19T22:31:50.192Z,6.65
2022-12-19T22:34:18.536Z,7.38
2022-12-19T22:36:45.320Z,5.25
2022-12-19T22:39:12.929Z,7.68
2022-12-19T22:41:39.781Z,9.95
2022-12-19T22:44:06.899Z,10.27
2022-12-19T22:46:36.879Z,9.63
2022-12-19T22:49:05.031Z,8.50
2022-12-19T22:51:32.553Z,13.52
2022-12-19T22:53:59.622Z,12.55
2022-12-19T22:56:27.804Z,10.20
2022-12-19T22:58:55.237Z,5.95
2022-12-19T23:01:22.725Z,5.43
2022-12-19T23:03:50.409Z,4.47
2022-12-19T23:06:17.502Z,5.53
2022-12-19T23:08:43.967Z,3.15
2022-12-19T23:11:11.753Z,2.67
2022-12-19T23:13:38.765Z,6.32
2022-12-19T23:16:05.312Z,2.38
2022-12-19T23:18:31.827Z,5.68
2022-12-19T23:21:04.155Z,4.90
2022-12-19T23:23:39.374Z,3.30
2022-12-19T23:26:11.298Z,2.20
2022-12-19T23:28:42.249Z,2.08
2022-12-19T23:31:10.165Z,1.15
2022-12-19T23:33:36.468Z,2.70
2022-12-19T23:36:04.121Z,8.43
2022-12-19T23:38:31.010Z,3.97
2022-12-19T23:41:04.838Z,3.17
2022-12-19T23:43:31.658Z,1.88
2022-12-19T23:45:58.029Z,5.30
2022-12-19T23:48:28.462Z,5.70
2022-12-19T23:51:01.980Z,4.70
2022-12-19T23:53:28.927Z,5.63
2022-12-19T23:55:55.433Z,4.53
2022-12-19T23:58:24.625Z,5.82
